createdAt,value
2024-03-22T10:38:52.882Z,45.0200
2024-03-22T10:41:23.401Z,45.0200
2024-03-22T10:41:23.401Z,45.0200
2024-03-22T10:42:30.215Z,45.0200
2024-03-22T10:43:37.177Z,45.0200
2024-03-22T11:05:43.969Z,9.6685
2024-03-22T11:26:19.312Z,9.6800
2024-03-22T11:26:19.312Z,9.6868
2024-03-22T11:36:33.933Z,9.6918
2024-03-22T11:46:49.301Z,9.7027
2024-03-22T11:57:03.794Z,9.7122
2024-03-22T12:07:18.460Z,9.7200
2024-03-22T12:17:32.971Z,9.7204
2024-03-22T12:27:48.199Z,9.8253
2024-03-22T12:38:02.918Z,9.8953
2024-03-22T12:48:17.387Z,9.7960
2024-03-22T12:58:32.352Z,10.0513
2024-03-22T13:08:47.526Z,10.1038
2024-03-22T13:19:02.748Z,10.1444
2024-03-22T13:29:17.785Z,10.1707
2024-03-22T13:39:32.859Z,10.1700
2024-03-22T13:49:47.855Z,10.1764
2024-03-22T14:00:03.359Z,10.2420
2024-03-22T14:10:18.942Z,10.1704
2024-03-22T14:20:33.836Z,10.1700
2024-03-22T14:30:49.106Z,10.1700
2024-03-22T14:41:03.984Z,10.1744
2024-03-22T14:51:19.236Z,10.1791
2024-03-22T15:01:34.543Z,10.1800
2024-03-22T15:11:50.100Z,10.1800
2024-03-22T15:22:05.263Z,10.1800
2024-03-22T15:32:20.572Z,10.1798
2024-03-22T15:42:35.572Z,10.2724
2024-03-22T15:52:50.592Z,10.3102
2024-03-22T16:03:05.642Z,10.3138
2024-03-22T16:13:20.655Z,10.3200
2024-03-22T16:23:35.659Z,10.3193
2024-03-22T16:33:50.616Z,10.3102
2024-03-22T16:44:05.618Z,10.3100
2024-03-22T16:54:20.564Z,10.3104
2024-03-22T17:04:35.703Z,10.3100
2024-03-22T17:14:50.692Z,10.3100
2024-03-22T17:25:05.694Z,10.3084
2024-03-22T17:35:21.041Z,10.3067
2024-03-22T17:45:36.226Z,10.3049
2024-03-22T17:55:51.279Z,10.3047
2024-03-22T18:06:06.258Z,10.3078
2024-03-22T18:16:21.185Z,10.3004
2024-03-22T18:26:36.242Z,10.3038
2024-03-22T18:36:51.276Z,10.3000
2024-03-22T18:47:06.311Z,10.3018
2024-03-22T18:57:21.092Z,10.3100
2024-03-22T19:07:35.841Z,10.3102
2024-03-22T19:17:50.416Z,10.3100
2024-03-22T19:28:05.056Z,10.3253
2024-03-22T19:38:20.001Z,10.4596
2024-03-22T19:48:34.849Z,10.3198
2024-03-22T19:58:49.437Z,10.3391
2024-03-22T20:09:04.170Z,10.3411
2024-03-22T20:19:18.900Z,10.3400
2024-03-22T20:29:33.387Z,10.3400
2024-03-22T20:39:48.025Z,10.3400
2024-03-22T20:50:02.392Z,10.3404
2024-03-22T21:00:16.414Z,10.3500
2024-03-22T21:10:30.613Z,10.3471
2024-03-22T21:20:44.684Z,10.3500
2024-03-22T21:30:58.963Z,10.3524
2024-03-22T21:41:13.169Z,10.3669
2024-03-22T21:51:27.407Z,10.3700
2024-03-22T22:01:41.552Z,10.3700
2024-03-22T22:11:56.084Z,10.3700
2024-03-22T22:22:10.402Z,10.3700
2024-03-22T22:32:25.649Z,10.3700
2024-03-22T22:42:40.044Z,10.3700
2024-03-22T22:52:54.262Z,10.3700
2024-03-22T23:03:08.515Z,10.3700
2024-03-22T23:13:23.041Z,10.3700
2024-03-22T23:23:37.776Z,10.3700
2024-03-22T23:33:52.171Z,10.3700
2024-03-22T23:44:06.508Z,10.3756
2024-03-22T23:54:21.040Z,10.3800
